Time;durP1;ratioP1;P1;durP2;ratioP2;P2;SDS_P1;SDS_P2;PMS_P1;PMS_P2;Temp;Humidity;BMP_temperature;BMP_pressure;BME280_temperature;BME280_humidity;BME280_pressure;Samples;Min_cycle;Max_cycle;Signal;HPM_P1;HPM_P2
2022/04/11 00:01:02;;;;;;;10.13;7.75;;;;;;;;;;4979360;28;20117;-84
2022/04/11 00:03:28;;;;;;;10.48;7.93;;;;;;;;;;4960618;28;20022;-86
2022/04/11 00:05:54;;;;;;;9.45;7.63;;;;;;;;;;4967485;28;20230;-88
2022/04/11 00:08:20;;;;;;;9.82;7.57;;;;;;;;;;4965423;28;20117;-84
2022/04/11 00:10:46;;;;;;;9.60;7.15;;;;;;;;;;4966089;28;20038;-84
2022/04/11 00:13:12;;;;;;;9.48;6.45;;;;;;;;;;4963547;28;20027;-83
2022/04/11 00:15:40;;;;;;;10.88;7.20;;;;;;;;;;4965985;28;20054;-84
2022/04/11 00:18:06;;;;;;;9.45;6.70;;;;;;;;;;4962488;28;20047;-85
2022/04/11 00:20:31;;;;;;;6.40;5.47;;;;;;;;;;4965235;28;20085;-85
2022/04/11 00:22:57;;;;;;;11.55;7.45;;;;;;;;;;4966584;28;20022;-85
2022/04/11 00:25:23;;;;;;;6.22;5.05;;;;;;;;;;4965619;28;20031;-84
2022/04/11 00:27:49;;;;;;;7.43;5.78;;;;;;;;;;4967111;28;20030;-82
2022/04/11 00:30:16;;;;;;;7.45;5.13;;;;;;;;;;4955352;28;20475;-83
2022/04/11 00:32:44;;;;;;;10.60;7.28;;;;;;;;;;4965674;28;20845;-85
2022/04/11 00:35:10;;;;;;;7.20;6.03;;;;;;;;;;4972220;28;20022;-87
2022/04/11 00:37:37;;;;;;;6.75;4.85;;;;;;;;;;4965485;28;20085;-84
2022/04/11 00:40:06;;;;;;;6.32;5.05;;;;;;;;;;4970382;28;20047;-84
2022/04/11 00:42:32;;;;;;;5.93;4.80;;;;;;;;;;4969616;28;20035;-85
2022/04/11 00:45:03;;;;;;;7.05;6.05;;;;;;;;;;4969409;28;20427;-88
2022/04/11 00:47:29;;;;;;;7.57;6.30;;;;;;;;;;4966145;28;20027;-85
2022/04/11 00:49:59;;;;;;;5.78;4.63;;;;;;;;;;4960698;28;20085;-85
2022/04/11 00:52:26;;;;;;;6.97;4.35;;;;;;;;;;4960624;28;20491;-84
2022/04/11 00:55:00;;;;;;;7.40;5.40;;;;;;;;;;4955874;28;20031;-83
2022/04/11 00:57:26;;;;;;;7.90;4.70;;;;;;;;;;4966114;28;20100;-83
2022/04/11 00:59:52;;;;;;;7.38;4.68;;;;;;;;;;4966795;28;20030;-83
2022/04/11 01:02:18;;;;;;;6.38;4.63;;;;;;;;;;4968564;28;20033;-84
2022/04/11 01:04:43;;;;;;;6.47;4.47;;;;;;;;;;4958756;28;20483;-83
2022/04/11 01:07:09;;;;;;;7.38;5.50;;;;;;;;;;4965823;28;20106;-84
2022/04/11 01:09:35;;;;;;;7.25;4.97;;;;;;;;;;4968175;28;20387;-87
2022/04/11 01:12:02;;;;;;;6.30;4.32;;;;;;;;;;4962457;28;20482;-84
2022/04/11 01:14:27;;;;;;;5.05;3.67;;;;;;;;;;4964654;28;20151;-86
2022/04/11 01:16:53;;;;;;;6.43;5.13;;;;;;;;;;4966299;28;20079;-88
2022/04/11 01:19:20;;;;;;;7.13;4.10;;;;;;;;;;4968061;28;20026;-85
2022/04/11 01:21:49;;;;;;;7.45;4.07;;;;;;;;;;4970923;28;20031;-84
2022/04/11 01:24:18;;;;;;;7.60;4.03;;;;;;;;;;4970173;28;20027;-86
2022/04/11 01:26:45;;;;;;;4.43;3.58;;;;;;;;;;4967272;28;20030;-83
2022/04/11 01:29:12;;;;;;;4.68;3.83;;;;;;;;;;4971988;28;20464;-85
2022/04/11 01:31:37;;;;;;;4.40;3.97;;;;;;;;;;4967310;28;20488;-87
2022/04/11 01:34:03;;;;;;;5.32;3.28;;;;;;;;;;4969159;28;20030;-85
2022/04/11 01:36:28;;;;;;;5.10;3.65;;;;;;;;;;4968254;28;20033;-86
2022/04/11 01:38:54;;;;;;;5.07;3.80;;;;;;;;;;4963149;28;20028;-87
2022/04/11 01:41:22;;;;;;;7.55;3.30;;;;;;;;;;4965062;28;20035;-88
2022/04/11 01:43:48;;;;;;;5.28;3.65;;;;;;;;;;4968070;28;20574;-86
2022/04/11 01:46:13;;;;;;;6.20;3.90;;;;;;;;;;4980670;28;20154;-87
2022/04/11 01:48:39;;;;;;;6.13;4.45;;;;;;;;;;4968074;28;20499;-86
2022/04/11 01:51:05;;;;;;;7.40;3.85;;;;;;;;;;4971361;28;20089;-86
2022/04/11 01:53:30;;;;;;;6.13;3.22;;;;;;;;;;4967822;28;20030;-83
2022/04/11 01:55:56;;;;;;;11.80;4.45;;;;;;;;;;4964289;28;20119;-88
2022/04/11 01:58:21;;;;;;;5.85;3.50;;;;;;;;;;4966936;28;20041;-87
2022/04/11 02:00:47;;;;;;;4.88;3.30;;;;;;;;;;4964819;28;20101;-89
2022/04/11 02:03:13;;;;;;;5.65;3.90;;;;;;;;;;4969850;28;20031;-90
2022/04/11 02:05:40;;;;;;;5.50;3.40;;;;;;;;;;4968241;28;20073;-88
2022/04/11 02:08:10;;;;;;;5.60;3.97;;;;;;;;;;4965710;28;20034;-86
2022/04/11 02:10:36;;;;;;;;;;;;;;;;;;4959948;28;20085;-84
2022/04/11 02:13:02;;;;;;;4.03;2.80;;;;;;;;;;4961773;28;19921;-84
2022/04/11 02:15:27;;;;;;;5.35;2.90;;;;;;;;;;4985047;28;20034;-85
2022/04/11 02:17:53;;;;;;;7.63;4.13;;;;;;;;;;4985185;28;20065;-85
2022/04/11 02:20:18;;;;;;;5.40;3.97;;;;;;;;;;4988172;28;20035;-89
2022/04/11 02:22:56;;;;;;;5.65;3.50;;;;;;;;;;4969351;28;20065;-86
2022/04/11 02:25:24;;;;;;;4.97;3.22;;;;;;;;;;4966871;28;20042;-87
2022/04/11 02:27:50;;;;;;;5.65;5.15;;;;;;;;;;4967083;28;20030;-87
2022/04/11 02:30:17;;;;;;;5.18;4.05;;;;;;;;;;4980259;28;20042;-87
2022/04/11 02:32:43;;;;;;;7.55;3.72;;;;;;;;;;4969407;28;20125;-87
2022/04/11 02:35:09;;;;;;;7.18;5.00;;;;;;;;;;4965482;28;20407;-85
2022/04/11 02:37:34;;;;;;;7.10;4.00;;;;;;;;;;4970513;28;20023;-87
2022/04/11 02:40:01;;;;;;;5.72;3.85;;;;;;;;;;4966287;28;20053;-89
2022/04/11 02:42:27;;;;;;;4.80;3.60;;;;;;;;;;4966143;28;20030;-88
2022/04/11 02:44:54;;;;;;;6.43;4.57;;;;;;;;;;4962495;28;20416;-85
2022/04/11 02:47:19;;;;;;;6.55;4.45;;;;;;;;;;4962628;28;20034;-90
2022/04/11 02:49:45;;;;;;;7.53;5.00;;;;;;;;;;4966297;28;20386;-88
2022/04/11 02:52:11;;;;;;;9.07;4.43;;;;;;;;;;4965591;28;20035;-89
2022/04/11 02:54:37;;;;;;;5.10;3.90;;;;;;;;;;4963296;28;20039;-86
2022/04/11 02:57:03;;;;;;;6.82;4.50;;;;;;;;;;4966950;28;20386;-85
2022/04/11 02:59:29;;;;;;;8.35;6.05;;;;;;;;;;4969125;28;20122;-88
2022/04/11 03:01:55;;;;;;;8.48;6.43;;;;;;;;;;4962490;28;20392;-88
2022/04/11 03:04:21;;;;;;;8.82;5.30;;;;;;;;;;4963918;28;20019;-91
2022/04/11 03:06:46;;;;;;;7.28;5.45;;;;;;;;;;4964522;28;20050;-87
2022/04/11 03:09:11;;;;;;;7.85;5.13;;;;;;;;;;4968757;28;20030;-86
2022/04/11 03:11:37;;;;;;;7.90;5.63;;;;;;;;;;4968128;28;20030;-90
2022/04/11 03:14:03;;;;;;;8.77;5.60;;;;;;;;;;4962661;28;20026;-82
2022/04/11 03:16:29;;;;;;;6.05;4.30;;;;;;;;;;4965178;28;20124;-84
2022/04/11 03:18:54;;;;;;;6.38;4.45;;;;;;;;;;4961137;28;20055;-85
2022/04/11 03:21:19;;;;;;;7.07;4.75;;;;;;;;;;4968340;28;20031;-85
2022/04/11 03:23:45;;;;;;;8.57;5.30;;;;;;;;;;4971032;28;20035;-86
2022/04/11 03:26:10;;;;;;;6.60;4.25;;;;;;;;;;4958864;28;20034;-85
2022/04/11 03:28:36;;;;;;;7.78;4.57;;;;;;;;;;4966462;28;20058;-84
2022/04/11 03:31:02;;;;;;;6.45;4.78;;;;;;;;;;4970212;28;20034;-85
2022/04/11 03:33:27;;;;;;;5.57;4.63;;;;;;;;;;4965640;28;20031;-90
2022/04/11 03:35:53;;;;;;;7.72;5.07;;;;;;;;;;4967406;28;20081;-87
2022/04/11 03:38:19;;;;;;;6.43;4.45;;;;;;;;;;4961106;28;20476;-87
2022/04/11 03:40:45;;;;;;;7.25;5.53;;;;;;;;;;4966615;28;20031;-85
2022/04/11 03:43:10;;;;;;;10.73;5.13;;;;;;;;;;4967614;28;20094;-86
2022/04/11 03:45:36;;;;;;;6.70;4.30;;;;;;;;;;4967482;28;20531;-85
2022/04/11 03:48:01;;;;;;;6.93;5.07;;;;;;;;;;4969231;28;20030;-85
2022/04/11 03:50:27;;;;;;;5.18;3.75;;;;;;;;;;4969544;28;20042;-87
2022/04/11 03:52:52;;;;;;;7.10;4.45;;;;;;;;;;4970773;28;20023;-87
2022/04/11 03:55:18;;;;;;;4.40;3.78;;;;;;;;;;4969903;28;20027;-88
2022/04/11 03:57:43;;;;;;;7.88;4.55;;;;;;;;;;4965302;28;20078;-86
2022/04/11 04:00:09;;;;;;;7.60;4.95;;;;;;;;;;4964903;28;20065;-85
2022/04/11 04:02:35;;;;;;;6.00;4.95;;;;;;;;;;4979059;28;20027;-84
2022/04/11 04:05:00;;;;;;;6.05;4.88;;;;;;;;;;4969984;28;20046;-84
2022/04/11 04:07:26;;;;;;;6.68;4.68;;;;;;;;;;4968247;28;20037;-86
2022/04/11 04:09:51;;;;;;;4.93;3.65;;;;;;;;;;4963130;28;20510;-88
2022/04/11 04:12:21;;;;;;;9.43;4.97;;;;;;;;;;4960303;28;20093;-85
2022/04/11 04:14:49;;;;;;;6.75;4.28;;;;;;;;;;4970302;28;20042;-87
2022/04/11 04:17:15;;;;;;;6.45;3.92;;;;;;;;;;4976340;28;20043;-91
2022/04/11 04:19:41;;;;;;;7.65;4.88;;;;;;;;;;4966840;28;20037;-88
2022/04/11 04:22:07;;;;;;;7.25;4.65;;;;;;;;;;4958497;28;20027;-86
2022/04/11 04:24:34;;;;;;;5.80;4.60;;;;;;;;;;4962788;28;20035;-89
2022/04/11 04:27:04;;;;;;;5.00;3.53;;;;;;;;;;4966585;28;20034;-85
2022/04/11 04:29:34;;;;;;;5.05;4.10;;;;;;;;;;4971971;28;20073;-86
2022/04/11 04:32:02;;;;;;;5.63;4.57;;;;;;;;;;4968508;28;20476;-85
2022/04/11 04:34:30;;;;;;;4.72;3.63;;;;;;;;;;4961449;28;20550;-83
2022/04/11 04:36:58;;;;;;;5.13;3.58;;;;;;;;;;4971689;28;20078;-86
2022/04/11 04:39:24;;;;;;;6.88;4.18;;;;;;;;;;4965979;28;20023;-83
2022/04/11 04:41:49;;;;;;;4.13;3.42;;;;;;;;;;4971031;28;20085;-83
2022/04/11 04:44:15;;;;;;;5.13;3.53;;;;;;;;;;4963278;28;20023;-85
2022/04/11 04:46:40;;;;;;;3.97;3.40;;;;;;;;;;4956754;28;20035;-83
2022/04/11 04:49:06;;;;;;;4.38;3.13;;;;;;;;;;4966334;28;20024;-86
2022/04/11 04:51:31;;;;;;;4.28;3.03;;;;;;;;;;4967487;28;20038;-83
2022/04/11 04:53:57;;;;;;;9.32;4.55;;;;;;;;;;4972015;28;20390;-84
2022/04/11 04:56:26;;;;;;;6.07;4.57;;;;;;;;;;4984026;28;20038;-86
2022/04/11 04:58:52;;;;;;;5.53;3.83;;;;;;;;;;4965851;28;20113;-86
2022/04/11 05:01:18;;;;;;;5.68;3.35;;;;;;;;;;4976964;28;20069;-90
2022/04/11 05:03:43;;;;;;;4.88;3.63;;;;;;;;;;4959897;28;20423;-85
2022/04/11 05:06:09;;;;;;;6.68;3.50;;;;;;;;;;4959987;28;20034;-86
2022/04/11 05:08:34;;;;;;;5.93;3.83;;;;;;;;;;4962941;28;20062;-87
2022/04/11 05:11:00;;;;;;;4.15;3.13;;;;;;;;;;4964529;28;20027;-87
2022/04/11 05:13:26;;;;;;;5.72;3.63;;;;;;;;;;4968401;28;20109;-86
2022/04/11 05:15:51;;;;;;;5.15;2.97;;;;;;;;;;4963810;28;20023;-86
2022/04/11 05:18:17;;;;;;;7.50;4.38;;;;;;;;;;4963866;28;20098;-82
2022/04/11 05:20:43;;;;;;;5.05;3.55;;;;;;;;;;4966500;28;20026;-88
2022/04/11 05:23:08;;;;;;;4.75;3.58;;;;;;;;;;4966649;28;20472;-87
2022/04/11 05:25:34;;;;;;;7.18;3.88;;;;;;;;;;4969059;28;20035;-86
2022/04/11 05:27:59;;;;;;;6.43;3.55;;;;;;;;;;4967933;28;20383;-85
2022/04/11 05:30:25;;;;;;;3.40;2.67;;;;;;;;;;4970897;28;20086;-85
2022/04/11 05:32:51;;;;;;;4.82;3.22;;;;;;;;;;4969930;28;20031;-88
2022/04/11 05:35:16;;;;;;;5.18;3.08;;;;;;;;;;4972970;28;20074;-85
2022/04/11 05:37:42;;;;;;;3.90;3.05;;;;;;;;;;4967567;28;20411;-84
2022/04/11 05:40:10;;;;;;;4.72;3.13;;;;;;;;;;4968689;28;20041;-84
2022/04/11 05:42:37;;;;;;;4.78;3.95;;;;;;;;;;4969929;28;20023;-82
2022/04/11 05:45:04;;;;;;;5.55;4.18;;;;;;;;;;4972774;28;20058;-85
2022/04/11 05:47:30;;;;;;;4.90;3.47;;;;;;;;;;4988629;28;20046;-83
2022/04/11 05:49:56;;;;;;;5.60;3.92;;;;;;;;;;4974772;28;20031;-86
2022/04/11 05:52:21;;;;;;;4.32;3.42;;;;;;;;;;4972073;28;20041;-86
2022/04/11 05:54:47;;;;;;;5.10;3.10;;;;;;;;;;4967598;28;20038;-84
2022/04/11 05:57:13;;;;;;;4.57;3.55;;;;;;;;;;4973424;28;20038;-84
2022/04/11 05:59:38;;;;;;;5.20;3.85;;;;;;;;;;4974339;28;20038;-88
2022/04/11 06:02:04;;;;;;;5.75;2.85;;;;;;;;;;4973487;28;20039;-84
2022/04/11 06:04:30;;;;;;;6.50;3.65;;;;;;;;;;4972245;28;20387;-86
2022/04/11 06:06:55;;;;;;;4.10;3.08;;;;;;;;;;4962852;28;20367;-85
2022/04/11 06:09:37;;;;;;;4.47;3.42;;;;;;;;;;4975787;28;20113;-88
2022/04/11 06:12:03;;;;;;;4.10;3.05;;;;;;;;;;4965435;28;20041;-88
2022/04/11 06:14:28;;;;;;;6.25;3.58;;;;;;;;;;4968184;28;20383;-89
2022/04/11 06:16:54;;;;;;;4.63;4.03;;;;;;;;;;4970724;28;20125;-90
2022/04/11 06:19:19;;;;;;;8.35;4.55;;;;;;;;;;4983156;28;20415;-89
2022/04/11 06:21:45;;;;;;;5.20;3.08;;;;;;;;;;4967999;28;20070;-87
2022/04/11 06:24:10;;;;;;;4.72;3.45;;;;;;;;;;4968045;28;20098;-89
2022/04/11 06:26:36;;;;;;;3.88;2.90;;;;;;;;;;4967812;28;20023;-86
2022/04/11 06:29:02;;;;;;;4.78;2.95;;;;;;;;;;4982797;28;20027;-90
2022/04/11 06:31:27;;;;;;;4.55;3.15;;;;;;;;;;4965986;28;20028;-89
2022/04/11 06:33:53;;;;;;;4.28;3.03;;;;;;;;;;4964592;28;20057;-88
2022/04/11 06:36:18;;;;;;;5.53;3.28;;;;;;;;;;4963057;28;20043;-87
2022/04/11 06:38:44;;;;;;;4.57;2.83;;;;;;;;;;4965263;28;20030;-86
2022/04/11 06:41:09;;;;;;;8.30;3.30;;;;;;;;;;4982764;28;20395;-87
2022/04/11 06:43:35;;;;;;;4.50;3.00;;;;;;;;;;4969704;28;20045;-88
2022/04/11 06:46:00;;;;;;;6.32;4.10;;;;;;;;;;4973495;28;20027;-86
2022/04/11 06:48:26;;;;;;;5.97;3.78;;;;;;;;;;4964439;28;20027;-87
2022/04/11 06:50:53;;;;;;;7.60;4.22;;;;;;;;;;4967896;28;20102;-86
2022/04/11 06:53:19;;;;;;;4.22;3.20;;;;;;;;;;4964743;28;20031;-87
2022/04/11 06:55:47;;;;;;;5.72;3.47;;;;;;;;;;4965696;28;20086;-88
2022/04/11 06:58:16;;;;;;;4.60;3.28;;;;;;;;;;4980456;28;20027;-89
2022/04/11 07:00:42;;;;;;;5.38;3.83;;;;;;;;;;4965463;28;20460;-86
2022/04/11 07:03:08;;;;;;;6.00;4.20;;;;;;;;;;4962876;28;20027;-86
2022/04/11 07:05:34;;;;;;;6.75;4.05;;;;;;;;;;4966415;28;20041;-86
2022/04/11 07:08:00;;;;;;;4.40;3.70;;;;;;;;;;4967123;28;20881;-87
2022/04/11 07:10:25;;;;;;;7.10;3.90;;;;;;;;;;4958140;28;20078;-87
2022/04/11 07:12:51;;;;;;;6.10;3.33;;;;;;;;;;4972880;28;20033;-87
2022/04/11 07:15:16;;;;;;;6.60;3.15;;;;;;;;;;4958312;28;20110;-87
2022/04/11 07:17:42;;;;;;;5.85;3.35;;;;;;;;;;4959405;28;20078;-87
2022/04/11 07:20:08;;;;;;;5.38;3.30;;;;;;;;;;4967130;28;20031;-86
2022/04/11 07:22:34;;;;;;;7.43;3.58;;;;;;;;;;4960254;28;20031;-86
2022/04/11 07:25:01;;;;;;;4.78;3.80;;;;;;;;;;4966965;28;20420;-87
2022/04/11 07:27:26;;;;;;;6.03;3.85;;;;;;;;;;4964888;28;20023;-89
2022/04/11 07:29:52;;;;;;;3.90;3.30;;;;;;;;;;4960200;28;20058;-88
2022/04/11 07:32:18;;;;;;;5.95;3.90;;;;;;;;;;4965555;28;20027;-87
2022/04/11 07:34:43;;;;;;;5.68;3.22;;;;;;;;;;4967132;28;20391;-86
2022/04/11 07:37:11;;;;;;;4.63;2.90;;;;;;;;;;4969343;28;20073;-86
2022/04/11 07:39:37;;;;;;;3.30;2.70;;;;;;;;;;4962496;28;20059;-89
2022/04/11 07:42:03;;;;;;;4.63;3.63;;;;;;;;;;4965430;28;20071;-85
2022/04/11 07:44:29;;;;;;;4.05;3.05;;;;;;;;;;4971254;28;20039;-85
2022/04/11 07:46:54;;;;;;;4.85;2.85;;;;;;;;;;4967493;28;20513;-83
2022/04/11 07:49:19;;;;;;;4.03;3.60;;;;;;;;;;4965557;28;20034;-83
2022/04/11 07:51:45;;;;;;;5.47;3.45;;;;;;;;;;4966944;28;20031;-89
2022/04/11 07:54:10;;;;;;;7.78;3.25;;;;;;;;;;4965328;28;20106;-84
2022/04/11 07:56:36;;;;;;;5.28;3.15;;;;;;;;;;4969106;28;20029;-83
2022/04/11 07:59:01;;;;;;;4.63;3.47;;;;;;;;;;4968740;28;20027;-84
2022/04/11 08:01:28;;;;;;;5.50;3.60;;;;;;;;;;4966245;28;20746;-86
2022/04/11 08:03:54;;;;;;;4.60;3.22;;;;;;;;;;4964858;28;20478;-82
2022/04/11 08:06:19;;;;;;;4.90;3.22;;;;;;;;;;4987206;28;20121;-85
2022/04/11 08:08:46;;;;;;;3.97;3.17;;;;;;;;;;4966500;28;20045;-83
2022/04/11 08:11:16;;;;;;;4.53;3.53;;;;;;;;;;4965427;28;20035;-86
2022/04/11 08:13:42;;;;;;;4.18;3.08;;;;;;;;;;4961766;28;20030;-85
2022/04/11 08:16:08;;;;;;;6.70;3.10;;;;;;;;;;4969290;28;20379;-84
2022/04/11 08:18:33;;;;;;;5.07;3.42;;;;;;;;;;4964442;28;20054;-85
2022/04/11 08:21:01;;;;;;;6.85;4.25;;;;;;;;;;4965371;28;20034;-85
2022/04/11 08:23:26;;;;;;;4.28;3.20;;;;;;;;;;4961318;28;20026;-86
2022/04/11 08:25:52;;;;;;;4.57;3.88;;;;;;;;;;4967743;28;20501;-84
2022/04/11 08:28:19;;;;;;;4.30;3.17;;;;;;;;;;4979743;28;20034;-83
2022/04/11 08:30:45;;;;;;;4.07;3.15;;;;;;;;;;4961812;28;20053;-84
2022/04/11 08:33:11;;;;;;;4.53;3.70;;;;;;;;;;4964769;28;20530;-86
2022/04/11 08:35:37;;;;;;;3.72;2.92;;;;;;;;;;4961633;28;20025;-83
2022/04/11 08:38:02;;;;;;;4.70;2.55;;;;;;;;;;4978366;28;20031;-85
2022/04/11 08:40:29;;;;;;;3.90;3.10;;;;;;;;;;4962841;28;20452;-84
2022/04/11 08:42:55;;;;;;;4.20;2.78;;;;;;;;;;4968496;28;20065;-84
2022/04/11 08:45:22;;;;;;;2.92;2.30;;;;;;;;;;4967267;28;20419;-86
2022/04/11 08:47:48;;;;;;;5.20;3.92;;;;;;;;;;4966806;28;20029;-88
2022/04/11 08:50:14;;;;;;;6.00;3.72;;;;;;;;;;4966740;28;20027;-86
2022/04/11 08:52:41;;;;;;;5.65;3.13;;;;;;;;;;4965203;28;20056;-87
2022/04/11 08:55:21;;;;;;;3.83;3.13;;;;;;;;;;4971371;28;20011;-87
2022/04/11 08:57:47;;;;;;;;;;;;;;;;;;4962787;28;20024;-85
2022/04/11 09:00:20;;;;;;;4.95;3.17;;;;;;;;;;4968669;28;19921;-84
2022/04/11 09:02:47;;;;;;;5.43;3.17;;;;;;;;;;4970804;28;20105;-83
2022/04/11 09:05:19;;;;;;;5.82;3.47;;;;;;;;;;4968605;28;20023;-87
2022/04/11 09:07:46;;;;;;;6.07;3.38;;;;;;;;;;4967013;28;20026;-88
2022/04/11 09:10:13;;;;;;;5.07;3.00;;;;;;;;;;4983174;28;20387;-85
2022/04/11 09:12:49;;;;;;;3.80;2.95;;;;;;;;;;4967693;28;20027;-86
2022/04/11 09:15:15;;;;;;;6.95;3.03;;;;;;;;;;4968933;28;20033;-84
2022/04/11 09:17:43;;;;;;;5.15;3.35;;;;;;;;;;4963427;28;20135;-84
2022/04/11 09:20:16;;;;;;;8.02;5.32;;;;;;;;;;4975373;28;20030;-85
2022/04/11 09:22:42;;;;;;;4.82;3.95;;;;;;;;;;4968263;28;20391;-85
2022/04/11 09:25:18;;;;;;;5.05;3.80;;;;;;;;;;4970232;28;20026;-88
2022/04/11 09:27:45;;;;;;;9.18;3.40;;;;;;;;;;4960146;28;20024;-84
2022/04/11 09:30:20;;;;;;;3.85;2.85;;;;;;;;;;4974934;28;20388;-83
2022/04/11 09:32:58;;;;;;;4.95;3.20;;;;;;;;;;4975232;28;20031;-87
2022/04/11 09:35:26;;;;;;;3.95;3.35;;;;;;;;;;4988410;28;20027;-85
2022/04/11 09:38:11;;;;;;;4.30;3.90;;;;;;;;;;4972265;28;20034;-85
2022/04/11 09:40:38;;;;;;;5.18;3.83;;;;;;;;;;4972038;28;20046;-83
2022/04/11 09:43:03;;;;;;;4.03;2.88;;;;;;;;;;4971049;28;20039;-86
2022/04/11 09:45:29;;;;;;;5.82;4.35;;;;;;;;;;4985693;28;20081;-84
2022/04/11 09:48:02;;;;;;;4.35;3.30;;;;;;;;;;4968240;28;20022;-85
2022/04/11 09:50:32;;;;;;;5.40;3.60;;;;;;;;;;4967887;28;20023;-85
2022/04/11 09:53:11;;;;;;;4.70;3.10;;;;;;;;;;4968098;28;20037;-84
2022/04/11 09:55:37;;;;;;;7.28;3.63;;;;;;;;;;4975659;28;20035;-86
2022/04/11 09:58:04;;;;;;;3.83;3.25;;;;;;;;;;4966307;28;20034;-86
2022/04/11 10:00:32;;;;;;;3.53;2.75;;;;;;;;;;4972056;28;20479;-83
2022/04/11 10:02:58;;;;;;;4.95;3.25;;;;;;;;;;4970530;28;20053;-83
2022/04/11 10:05:27;;;;;;;3.53;2.67;;;;;;;;;;4971438;28;20739;-83
2022/04/11 10:07:56;;;;;;;7.35;3.03;;;;;;;;;;4968080;28;20027;-83
2022/04/11 10:10:23;;;;;;;2.42;2.15;;;;;;;;;;4970906;28;20023;-88
2022/04/11 10:12:53;;;;;;;6.03;1.92;;;;;;;;;;4974252;28;20133;-86
2022/04/11 10:15:22;;;;;;;3.70;3.28;;;;;;;;;;4967134;28;20580;-89
2022/04/11 10:17:53;;;;;;;2.87;2.43;;;;;;;;;;4974724;28;20093;-84
2022/04/11 10:20:27;;;;;;;3.88;3.10;;;;;;;;;;4972382;28;20027;-87
2022/04/11 10:23:26;;;;;;;3.97;2.92;;;;;;;;;;4971653;28;20027;-86
2022/04/11 10:25:55;;;;;;;4.97;3.83;;;;;;;;;;4965224;28;20070;-83
2022/04/11 10:28:27;;;;;;;3.58;3.25;;;;;;;;;;4986463;28;20027;-87
2022/04/11 10:31:14;;;;;;;9.05;3.88;;;;;;;;;;4974087;28;20479;-84
2022/04/11 10:33:52;;;;;;;4.68;3.05;;;;;;;;;;4983664;28;20039;-84
2022/04/11 10:36:38;;;;;;;6.20;2.78;;;;;;;;;;4974867;28;20050;-84
2022/04/11 10:39:16;;;;;;;3.83;2.95;;;;;;;;;;4983737;28;20029;-82
2022/04/11 10:41:57;;;;;;;4.13;3.00;;;;;;;;;;4985351;28;20415;-85
2022/04/11 10:44:42;;;;;;;5.85;3.72;;;;;;;;;;4964586;28;20478;-85
2022/04/11 10:47:07;;;;;;;5.03;3.10;;;;;;;;;;4968768;28;20029;-85
2022/04/11 10:49:45;;;;;;;5.93;3.47;;;;;;;;;;4966028;28;20062;-85
2022/04/11 10:52:30;;;;;;;5.47;3.53;;;;;;;;;;4969118;28;20113;-85
2022/04/11 10:54:57;;;;;;;3.65;2.58;;;;;;;;;;4967201;28;20442;-90
2022/04/11 10:57:43;;;;;;;3.90;2.30;;;;;;;;;;4964254;28;20058;-85
2022/04/11 11:00:09;;;;;;;3.78;2.63;;;;;;;;;;4967742;28;20030;-84
2022/04/11 11:02:56;;;;;;;5.13;3.83;;;;;;;;;;4968851;28;20085;-86
2022/04/11 11:05:24;;;;;;;3.15;2.33;;;;;;;;;;4964374;28;20035;-83
2022/04/11 11:08:09;;;;;;;4.57;3.13;;;;;;;;;;4968604;28;20035;-85
2022/04/11 11:10:44;;;;;;;3.60;3.20;;;;;;;;;;4967359;28;20031;-84
2022/04/11 11:13:26;;;;;;;3.45;2.60;;;;;;;;;;4962831;28;20023;-83
2022/04/11 11:16:18;;;;;;;4.05;2.70;;;;;;;;;;4978145;28;20034;-84
2022/04/11 11:18:46;;;;;;;5.10;2.75;;;;;;;;;;4965114;28;20053;-84
2022/04/11 11:21:17;;;;;;;3.47;2.38;;;;;;;;;;4980469;28;20022;-85
2022/04/11 11:24:18;;;;;;;3.28;2.58;;;;;;;;;;4986881;28;20061;-85
2022/04/11 11:26:47;;;;;;;4.85;2.90;;;;;;;;;;4954541;28;20414;-84
2022/04/11 11:29:19;;;;;;;3.65;2.72;;;;;;;;;;4973652;28;20058;-86
2022/04/11 11:31:46;;;;;;;3.33;2.97;;;;;;;;;;4964164;28;20035;-85
2022/04/11 11:34:13;;;;;;;3.83;2.70;;;;;;;;;;4966833;28;20032;-85
2022/04/11 11:36:39;;;;;;;5.75;2.75;;;;;;;;;;4975495;28;20025;-87
2022/04/11 11:39:18;;;;;;;4.32;2.70;;;;;;;;;;4973193;28;20382;-85
2022/04/11 11:46:07;;;;;;;3.95;2.53;;;;;;;;;;4967444;28;20038;-85
2022/04/11 12:40:51;;;;;;;2.55;2.00;;;;;;;;;;4990198;28;20062;-85
2022/04/11 14:43:24;;;;;;;7.15;4.25;;;;;;;;;;5003989;28;20116;-88
2022/04/11 14:46:09;;;;;;;6.15;3.90;;;;;;;;;;4989418;28;20097;-86
2022/04/11 14:48:37;;;;;;;8.80;5.78;;;;;;;;;;4994336;28;20132;-85
2022/04/11 14:51:03;;;;;;;7.55;4.82;;;;;;;;;;4993778;28;20564;-86
2022/04/11 14:53:29;;;;;;;4.97;2.97;;;;;;;;;;4984400;28;20122;-87
2022/04/11 14:55:55;;;;;;;6.40;3.85;;;;;;;;;;4981002;28;20115;-84
2022/04/11 14:58:20;;;;;;;4.13;2.53;;;;;;;;;;5002331;28;20057;-84
2022/04/11 15:00:46;;;;;;;5.18;2.72;;;;;;;;;;4987581;28;20327;-84
2022/04/11 15:03:11;;;;;;;4.03;2.90;;;;;;;;;;5001854;28;20038;-86
2022/04/11 15:05:37;;;;;;;4.55;2.78;;;;;;;;;;4993137;28;20030;-85
2022/04/11 15:08:03;;;;;;;6.38;4.15;;;;;;;;;;4983916;28;20068;-86
2022/04/11 15:10:32;;;;;;;5.57;3.80;;;;;;;;;;4989296;28;20042;-86
2022/04/11 15:12:57;;;;;;;4.55;2.90;;;;;;;;;;5008860;28;20026;-86
2022/04/11 15:15:23;;;;;;;4.00;2.55;;;;;;;;;;5001899;28;20030;-87
2022/04/11 15:17:50;;;;;;;6.28;3.92;;;;;;;;;;4986998;28;20045;-86
2022/04/11 15:20:16;;;;;;;3.58;2.35;;;;;;;;;;5014275;28;20116;-89
2022/04/11 15:22:41;;;;;;;6.75;3.38;;;;;;;;;;4990718;28;20070;-88
2022/04/11 15:25:07;;;;;;;5.43;3.25;;;;;;;;;;4987602;28;20129;-86
2022/04/11 15:27:33;;;;;;;3.80;2.50;;;;;;;;;;5005251;28;20046;-87
2022/04/11 15:30:00;;;;;;;4.03;2.28;;;;;;;;;;4983275;28;20048;-85
2022/04/11 15:32:25;;;;;;;3.63;2.30;;;;;;;;;;5002492;28;20057;-87
2022/04/11 15:34:51;;;;;;;3.08;2.10;;;;;;;;;;4991722;28;20030;-86
2022/04/11 15:37:16;;;;;;;4.45;1.90;;;;;;;;;;4990750;28;20418;-85
2022/04/11 15:39:42;;;;;;;4.43;2.40;;;;;;;;;;5016263;28;20045;-85
2022/04/11 15:42:09;;;;;;;2.53;1.50;;;;;;;;;;4987797;28;20058;-86
2022/04/11 15:44:35;;;;;;;2.30;1.80;;;;;;;;;;4990159;28;20539;-87
2022/04/11 15:47:02;;;;;;;4.28;2.28;;;;;;;;;;4998770;28;20042;-87
2022/04/11 15:49:28;;;;;;;1.95;1.77;;;;;;;;;;4992232;28;20042;-89
2022/04/11 15:51:53;;;;;;;2.88;2.03;;;;;;;;;;5004800;28;20030;-87
2022/04/11 15:54:19;;;;;;;2.40;1.60;;;;;;;;;;5001627;28;20375;-86
2022/04/11 15:56:46;;;;;;;3.03;2.17;;;;;;;;;;4999977;28;20159;-87
2022/04/11 15:59:12;;;;;;;3.00;2.42;;;;;;;;;;4983360;28;20034;-86
2022/04/11 16:01:38;;;;;;;3.28;1.92;;;;;;;;;;4985608;28;20109;-86
2022/04/11 16:04:05;;;;;;;4.53;3.05;;;;;;;;;;4989577;28;20108;-86
2022/04/11 16:06:31;;;;;;;5.43;3.97;;;;;;;;;;5008974;28;20037;-87
2022/04/11 16:09:00;;;;;;;4.00;2.55;;;;;;;;;;4988946;28;20489;-85
2022/04/11 16:11:25;;;;;;;3.85;2.40;;;;;;;;;;4987011;28;20107;-84
2022/04/11 16:13:51;;;;;;;4.82;2.58;;;;;;;;;;5008111;28;20108;-86
2022/04/11 16:16:16;;;;;;;3.17;2.15;;;;;;;;;;4987069;28;20021;-87
2022/04/11 16:18:47;;;;;;;1.90;1.50;;;;;;;;;;4986323;28;20034;-89
2022/04/11 16:21:12;;;;;;;3.53;2.67;;;;;;;;;;4982933;28;20057;-88
2022/04/11 16:23:40;;;;;;;3.42;2.38;;;;;;;;;;4986402;28;20466;-90
2022/04/11 16:26:07;;;;;;;5.22;2.45;;;;;;;;;;4990908;28;20041;-86
2022/04/11 16:28:33;;;;;;;8.93;4.95;;;;;;;;;;4981743;28;20099;-85
2022/04/11 16:30:59;;;;;;;9.00;5.57;;;;;;;;;;5007716;28;20618;-86
2022/04/11 16:33:24;;;;;;;11.45;6.68;;;;;;;;;;4988314;28;20430;-89
2022/04/11 16:35:50;;;;;;;14.57;7.28;;;;;;;;;;4989482;28;20033;-86
2022/04/11 16:38:15;;;;;;;13.75;7.63;;;;;;;;;;5003337;28;20507;-88
2022/04/11 16:40:41;;;;;;;3.63;2.42;;;;;;;;;;4986165;28;20402;-87
2022/04/11 16:43:06;;;;;;;11.75;5.97;;;;;;;;;;4986233;28;20049;-86
2022/04/11 16:45:32;;;;;;;6.10;2.78;;;;;;;;;;5006599;28;20040;-89
2022/04/11 16:47:58;;;;;;;2.83;2.38;;;;;;;;;;4983806;28;20121;-85
2022/04/11 16:50:24;;;;;;;5.10;2.78;;;;;;;;;;5002259;28;20368;-87
2022/04/11 16:52:49;;;;;;;7.40;4.13;;;;;;;;;;4989772;28;20048;-86
2022/04/11 16:55:15;;;;;;;7.28;4.00;;;;;;;;;;4984474;28;20039;-86
2022/04/11 16:57:40;;;;;;;5.18;3.55;;;;;;;;;;4990849;28;20037;-86
2022/04/11 17:00:07;;;;;;;6.88;4.00;;;;;;;;;;4987794;28;20045;-86
2022/04/11 17:02:35;;;;;;;7.53;5.30;;;;;;;;;;5006506;28;20093;-87
2022/04/11 17:05:04;;;;;;;9.35;6.60;;;;;;;;;;4987909;28;20041;-86
2022/04/11 17:07:30;;;;;;;3.85;2.28;;;;;;;;;;5015495;28;20034;-87
2022/04/11 17:09:56;;;;;;;3.40;2.30;;;;;;;;;;4999795;28;20061;-87
2022/04/11 17:12:21;;;;;;;3.60;2.25;;;;;;;;;;4989261;28;20037;-85
2022/04/11 17:14:47;;;;;;;4.35;2.20;;;;;;;;;;5006501;28;20512;-85
2022/04/11 17:19:57;;;;;;;3.38;2.05;;;;;;;;;;5004331;28;20048;-87
2022/04/11 17:22:23;;;;;;;7.40;4.40;;;;;;;;;;4987643;28;20038;-86
2022/04/11 17:24:48;;;;;;;14.02;9.25;;;;;;;;;;5002651;28;20037;-86
2022/04/11 17:27:16;;;;;;;5.40;3.85;;;;;;;;;;5014218;28;20037;-87
2022/04/11 17:29:41;;;;;;;5.53;3.50;;;;;;;;;;5007093;28;20034;-87
2022/04/11 17:32:07;;;;;;;4.38;2.83;;;;;;;;;;4987779;28;20088;-86
2022/04/11 17:34:35;;;;;;;4.32;2.30;;;;;;;;;;4984850;28;20046;-87
2022/04/11 17:37:02;;;;;;;4.82;2.67;;;;;;;;;;4987006;28;20056;-86
2022/04/11 17:39:45;;;;;;;4.80;3.30;;;;;;;;;;4994298;28;20038;-86
2022/04/11 17:42:11;;;;;;;2.78;2.30;;;;;;;;;;5010064;28;20445;-89
2022/04/11 17:44:37;;;;;;;2.85;2.33;;;;;;;;;;4988752;28;20042;-87